sensor_id;sensor_type;location;lat;lon;timestamp;P1;durP1;ratioP1;P2;durP2;ratioP2
6089;SDS011;3073;42.660;23.316;2022-12-07T00:01:14;78.83;;;33.53;;
6089;SDS011;3073;42.660;23.316;2022-12-07T00:03:43;70.63;;;33.57;;
6089;SDS011;3073;42.660;23.316;2022-12-07T00:06:12;73.30;;;34.40;;
6089;SDS011;3073;42.660;23.316;2022-12-07T00:08:42;75.30;;;35.07;;
6089;SDS011;3073;42.660;23.316;2022-12-07T00:11:10;71.90;;;31.80;;
6089;SDS011;3073;42.660;23.316;2022-12-07T00:13:38;65.93;;;31.23;;
6089;SDS011;3073;42.660;23.316;2022-12-07T00:16:08;74.57;;;31.57;;
6089;SDS011;3073;42.660;23.316;2022-12-07T00:18:37;67.00;;;32.57;;
6089;SDS011;3073;42.660;23.316;2022-12-07T00:21:04;62.27;;;31.50;;
6089;SDS011;3073;42.660;23.316;2022-12-07T00:23:33;72.30;;;32.47;;
6089;SDS011;3073;42.660;23.316;2022-12-07T00:26:06;75.17;;;33.43;;
6089;SDS011;3073;42.660;23.316;2022-12-07T00:28:34;58.87;;;30.77;;
6089;SDS011;3073;42.660;23.316;2022-12-07T00:31:05;74.97;;;32.87;;
6089;SDS011;3073;42.660;23.316;2022-12-07T00:33:33;69.87;;;30.97;;
6089;SDS011;3073;42.660;23.316;2022-12-07T00:36:01;63.53;;;31.43;;
6089;SDS011;3073;42.660;23.316;2022-12-07T00:38:31;85.03;;;32.70;;
6089;SDS011;3073;42.660;23.316;2022-12-07T00:41:00;68.33;;;30.47;;
6089;SDS011;3073;42.660;23.316;2022-12-07T00:43:29;59.27;;;30.30;;
6089;SDS011;3073;42.660;23.316;2022-12-07T00:45:57;65.83;;;32.90;;
6089;SDS011;3073;42.660;23.316;2022-12-07T00:48:24;54.37;;;29.37;;
6089;SDS011;3073;42.660;23.316;2022-12-07T00:50:52;59.77;;;29.27;;
6089;SDS011;3073;42.660;23.316;2022-12-07T00:53:19;55.30;;;29.87;;
6089;SDS011;3073;42.660;23.316;2022-12-07T00:55:46;57.53;;;28.93;;
6089;SDS011;3073;42.660;23.316;2022-12-07T00:58:14;56.70;;;29.07;;
6089;SDS011;3073;42.660;23.316;2022-12-07T01:00:42;57.20;;;28.90;;
6089;SDS011;3073;42.660;23.316;2022-12-07T01:03:10;62.63;;;27.30;;
6089;SDS011;3073;42.660;23.316;2022-12-07T01:05:39;65.73;;;29.60;;
6089;SDS011;3073;42.660;23.316;2022-12-07T01:08:06;67.07;;;33.57;;
6089;SDS011;3073;42.660;23.316;2022-12-07T01:10:33;73.73;;;31.30;;
6089;SDS011;3073;42.660;23.316;2022-12-07T01:13:00;64.07;;;31.40;;
6089;SDS011;3073;42.660;23.316;2022-12-07T01:15:27;64.13;;;29.90;;
6089;SDS011;3073;42.660;23.316;2022-12-07T01:17:55;64.50;;;31.13;;
6089;SDS011;3073;42.660;23.316;2022-12-07T01:20:22;62.37;;;30.20;;
6089;SDS011;3073;42.660;23.316;2022-12-07T01:22:49;70.60;;;32.90;;
6089;SDS011;3073;42.660;23.316;2022-12-07T01:25:16;68.63;;;32.00;;
6089;SDS011;3073;42.660;23.316;2022-12-07T01:27:43;71.90;;;32.23;;
6089;SDS011;3073;42.660;23.316;2022-12-07T01:30:10;73.17;;;33.53;;
6089;SDS011;3073;42.660;23.316;2022-12-07T01:32:38;69.90;;;35.13;;
6089;SDS011;3073;42.660;23.316;2022-12-07T01:35:07;74.87;;;33.63;;
6089;SDS011;3073;42.660;23.316;2022-12-07T01:37:34;62.80;;;30.87;;
6089;SDS011;3073;42.660;23.316;2022-12-07T01:40:02;58.07;;;31.30;;
6089;SDS011;3073;42.660;23.316;2022-12-07T01:42:30;65.77;;;31.30;;
6089;SDS011;3073;42.660;23.316;2022-12-07T01:48:00;63.40;;;31.00;;
6089;SDS011;3073;42.660;23.316;2022-12-07T01:50:30;67.03;;;31.77;;
6089;SDS011;3073;42.660;23.316;2022-12-07T01:52:58;67.93;;;33.73;;
6089;SDS011;3073;42.660;23.316;2022-12-07T01:55:27;65.90;;;32.30;;
6089;SDS011;3073;42.660;23.316;2022-12-07T01:57:54;67.20;;;32.60;;
6089;SDS011;3073;42.660;23.316;2022-12-07T02:00:22;61.73;;;31.10;;
6089;SDS011;3073;42.660;23.316;2022-12-07T02:02:54;64.80;;;29.90;;
6089;SDS011;3073;42.660;23.316;2022-12-07T02:05:24;76.77;;;31.30;;
6089;SDS011;3073;42.660;23.316;2022-12-07T02:07:54;62.93;;;31.00;;
6089;SDS011;3073;42.660;23.316;2022-12-07T02:10:23;70.07;;;31.73;;
6089;SDS011;3073;42.660;23.316;2022-12-07T02:12:52;55.33;;;29.40;;
6089;SDS011;3073;42.660;23.316;2022-12-07T02:15:22;65.37;;;30.43;;
6089;SDS011;3073;42.660;23.316;2022-12-07T02:17:58;60.30;;;28.80;;
6089;SDS011;3073;42.660;23.316;2022-12-07T02:20:32;57.90;;;31.27;;
6089;SDS011;3073;42.660;23.316;2022-12-07T02:23:17;77.93;;;30.70;;
6089;SDS011;3073;42.660;23.316;2022-12-07T02:26:08;52.40;;;29.03;;
6089;SDS011;3073;42.660;23.316;2022-12-07T02:29:03;64.70;;;29.97;;
6089;SDS011;3073;42.660;23.316;2022-12-07T02:31:38;61.80;;;31.60;;
6089;SDS011;3073;42.660;23.316;2022-12-07T02:34:12;53.63;;;26.70;;
6089;SDS011;3073;42.660;23.316;2022-12-07T02:36:46;61.50;;;30.17;;
6089;SDS011;3073;42.660;23.316;2022-12-07T02:39:23;67.23;;;30.90;;
6089;SDS011;3073;42.660;23.316;2022-12-07T02:41:56;62.93;;;29.90;;
6089;SDS011;3073;42.660;23.316;2022-12-07T02:44:29;67.33;;;30.57;;
6089;SDS011;3073;42.660;23.316;2022-12-07T02:46:59;64.30;;;30.67;;
6089;SDS011;3073;42.660;23.316;2022-12-07T02:49:30;75.80;;;31.40;;
6089;SDS011;3073;42.660;23.316;2022-12-07T02:51:57;56.23;;;28.10;;
6089;SDS011;3073;42.660;23.316;2022-12-07T02:54:24;56.93;;;29.60;;
6089;SDS011;3073;42.660;23.316;2022-12-07T02:56:52;63.60;;;29.90;;
6089;SDS011;3073;42.660;23.316;2022-12-07T02:59:32;62.60;;;28.90;;
6089;SDS011;3073;42.660;23.316;2022-12-07T03:02:13;65.47;;;28.97;;
6089;SDS011;3073;42.660;23.316;2022-12-07T03:04:48;60.63;;;28.77;;
6089;SDS011;3073;42.660;23.316;2022-12-07T03:07:29;62.37;;;27.50;;
6089;SDS011;3073;42.660;23.316;2022-12-07T03:10:07;56.53;;;29.60;;
6089;SDS011;3073;42.660;23.316;2022-12-07T03:12:42;57.57;;;27.67;;
6089;SDS011;3073;42.660;23.316;2022-12-07T03:15:14;61.07;;;29.40;;
6089;SDS011;3073;42.660;23.316;2022-12-07T03:17:46;56.13;;;28.93;;
6089;SDS011;3073;42.660;23.316;2022-12-07T03:20:17;54.00;;;27.77;;
6089;SDS011;3073;42.660;23.316;2022-12-07T03:22:48;66.03;;;30.03;;
6089;SDS011;3073;42.660;23.316;2022-12-07T03:25:17;62.33;;;28.67;;
6089;SDS011;3073;42.660;23.316;2022-12-07T03:27:45;51.13;;;27.33;;
6089;SDS011;3073;42.660;23.316;2022-12-07T03:30:23;55.13;;;27.93;;
6089;SDS011;3073;42.660;23.316;2022-12-07T03:32:54;53.03;;;26.50;;
6089;SDS011;3073;42.660;23.316;2022-12-07T03:35:27;58.80;;;26.60;;
6089;SDS011;3073;42.660;23.316;2022-12-07T03:37:59;56.27;;;26.73;;
6089;SDS011;3073;42.660;23.316;2022-12-07T03:40:32;50.73;;;26.00;;
6089;SDS011;3073;42.660;23.316;2022-12-07T03:43:03;58.90;;;27.47;;
6089;SDS011;3073;42.660;23.316;2022-12-07T03:45:42;55.03;;;28.13;;
6089;SDS011;3073;42.660;23.316;2022-12-07T03:48:14;51.63;;;24.73;;
6089;SDS011;3073;42.660;23.316;2022-12-07T03:50:49;53.50;;;27.07;;
6089;SDS011;3073;42.660;23.316;2022-12-07T03:53:20;53.27;;;26.63;;
6089;SDS011;3073;42.660;23.316;2022-12-07T03:55:56;57.23;;;28.83;;
6089;SDS011;3073;42.660;23.316;2022-12-07T03:58:24;56.70;;;25.63;;
6089;SDS011;3073;42.660;23.316;2022-12-07T04:00:53;51.80;;;24.20;;
6089;SDS011;3073;42.660;23.316;2022-12-07T04:03:21;47.63;;;25.30;;
6089;SDS011;3073;42.660;23.316;2022-12-07T04:05:48;50.03;;;26.50;;
6089;SDS011;3073;42.660;23.316;2022-12-07T04:08:15;51.70;;;25.27;;
6089;SDS011;3073;42.660;23.316;2022-12-07T04:10:42;52.73;;;26.33;;
6089;SDS011;3073;42.660;23.316;2022-12-07T04:13:09;56.20;;;27.00;;
6089;SDS011;3073;42.660;23.316;2022-12-07T04:15:57;47.70;;;24.60;;
6089;SDS011;3073;42.660;23.316;2022-12-07T04:18:36;52.20;;;24.70;;
6089;SDS011;3073;42.660;23.316;2022-12-07T04:21:03;59.13;;;26.70;;
6089;SDS011;3073;42.660;23.316;2022-12-07T04:23:30;50.23;;;26.60;;
6089;SDS011;3073;42.660;23.316;2022-12-07T04:25:57;55.73;;;25.97;;
6089;SDS011;3073;42.660;23.316;2022-12-07T04:28:25;60.13;;;25.53;;
6089;SDS011;3073;42.660;23.316;2022-12-07T04:30:52;56.53;;;28.67;;
6089;SDS011;3073;42.660;23.316;2022-12-07T04:33:20;50.73;;;27.53;;
6089;SDS011;3073;42.660;23.316;2022-12-07T04:35:50;57.53;;;27.97;;
6089;SDS011;3073;42.660;23.316;2022-12-07T04:38:17;78.33;;;37.20;;
6089;SDS011;3073;42.660;23.316;2022-12-07T04:40:44;59.20;;;28.90;;
6089;SDS011;3073;42.660;23.316;2022-12-07T04:43:10;54.47;;;27.30;;
6089;SDS011;3073;42.660;23.316;2022-12-07T04:45:37;47.07;;;25.53;;
6089;SDS011;3073;42.660;23.316;2022-12-07T04:48:04;56.87;;;27.13;;
6089;SDS011;3073;42.660;23.316;2022-12-07T04:50:33;56.00;;;27.70;;
6089;SDS011;3073;42.660;23.316;2022-12-07T04:53:03;53.90;;;27.37;;
6089;SDS011;3073;42.660;23.316;2022-12-07T04:55:30;52.13;;;26.60;;
6089;SDS011;3073;42.660;23.316;2022-12-07T04:57:57;63.07;;;26.20;;
6089;SDS011;3073;42.660;23.316;2022-12-07T05:00:23;57.07;;;25.37;;
6089;SDS011;3073;42.660;23.316;2022-12-07T05:02:50;53.27;;;25.87;;
6089;SDS011;3073;42.660;23.316;2022-12-07T05:05:17;55.90;;;26.47;;
6089;SDS011;3073;42.660;23.316;2022-12-07T05:07:45;52.40;;;27.03;;
6089;SDS011;3073;42.660;23.316;2022-12-07T05:10:12;55.13;;;26.80;;
6089;SDS011;3073;42.660;23.316;2022-12-07T05:12:39;47.40;;;26.13;;
6089;SDS011;3073;42.660;23.316;2022-12-07T05:15:06;49.17;;;27.17;;
6089;SDS011;3073;42.660;23.316;2022-12-07T05:17:33;55.10;;;27.70;;
6089;SDS011;3073;42.660;23.316;2022-12-07T05:20:00;52.27;;;28.03;;
6089;SDS011;3073;42.660;23.316;2022-12-07T05:22:27;52.27;;;25.60;;
6089;SDS011;3073;42.660;23.316;2022-12-07T05:24:55;51.47;;;27.20;;
6089;SDS011;3073;42.660;23.316;2022-12-07T05:27:22;52.10;;;26.00;;
6089;SDS011;3073;42.660;23.316;2022-12-07T05:29:49;62.97;;;29.10;;
6089;SDS011;3073;42.660;23.316;2022-12-07T05:32:16;60.00;;;27.60;;
6089;SDS011;3073;42.660;23.316;2022-12-07T05:34:43;70.57;;;28.17;;
6089;SDS011;3073;42.660;23.316;2022-12-07T05:37:11;63.63;;;26.40;;
6089;SDS011;3073;42.660;23.316;2022-12-07T05:39:38;67.70;;;27.90;;
6089;SDS011;3073;42.660;23.316;2022-12-07T05:42:09;64.47;;;29.63;;
6089;SDS011;3073;42.660;23.316;2022-12-07T05:44:40;63.40;;;29.63;;
6089;SDS011;3073;42.660;23.316;2022-12-07T05:47:07;52.60;;;24.00;;
6089;SDS011;3073;42.660;23.316;2022-12-07T05:49:34;55.00;;;28.93;;
6089;SDS011;3073;42.660;23.316;2022-12-07T05:52:01;54.00;;;27.50;;
6089;SDS011;3073;42.660;23.316;2022-12-07T05:54:28;56.13;;;27.30;;
6089;SDS011;3073;42.660;23.316;2022-12-07T05:56:55;53.23;;;29.13;;
6089;SDS011;3073;42.660;23.316;2022-12-07T05:59:24;76.60;;;38.87;;
6089;SDS011;3073;42.660;23.316;2022-12-07T06:01:50;54.50;;;27.70;;
6089;SDS011;3073;42.660;23.316;2022-12-07T06:04:17;57.00;;;28.67;;
6089;SDS011;3073;42.660;23.316;2022-12-07T06:06:44;61.43;;;27.23;;
6089;SDS011;3073;42.660;23.316;2022-12-07T06:09:11;67.17;;;28.37;;
6089;SDS011;3073;42.660;23.316;2022-12-07T06:11:39;68.43;;;28.30;;
6089;SDS011;3073;42.660;23.316;2022-12-07T06:14:25;70.80;;;27.43;;
6089;SDS011;3073;42.660;23.316;2022-12-07T06:16:52;59.90;;;26.80;;
6089;SDS011;3073;42.660;23.316;2022-12-07T06:19:19;61.33;;;28.07;;
6089;SDS011;3073;42.660;23.316;2022-12-07T06:21:45;66.23;;;29.20;;
6089;SDS011;3073;42.660;23.316;2022-12-07T06:24:13;62.53;;;27.80;;
6089;SDS011;3073;42.660;23.316;2022-12-07T06:26:41;71.43;;;28.77;;
6089;SDS011;3073;42.660;23.316;2022-12-07T06:29:08;72.23;;;28.00;;
6089;SDS011;3073;42.660;23.316;2022-12-07T06:31:38;62.53;;;28.30;;
6089;SDS011;3073;42.660;23.316;2022-12-07T06:34:05;75.07;;;32.60;;
6089;SDS011;3073;42.660;23.316;2022-12-07T06:36:35;74.80;;;33.77;;
6089;SDS011;3073;42.660;23.316;2022-12-07T06:39:02;71.20;;;31.97;;
6089;SDS011;3073;42.660;23.316;2022-12-07T06:41:31;71.07;;;31.97;;
6089;SDS011;3073;42.660;23.316;2022-12-07T06:43:58;83.57;;;36.80;;
6089;SDS011;3073;42.660;23.316;2022-12-07T06:46:25;66.70;;;30.70;;
6089;SDS011;3073;42.660;23.316;2022-12-07T06:48:53;57.50;;;29.30;;
6089;SDS011;3073;42.660;23.316;2022-12-07T06:51:20;64.93;;;30.10;;
6089;SDS011;3073;42.660;23.316;2022-12-07T06:53:47;63.00;;;29.90;;
6089;SDS011;3073;42.660;23.316;2022-12-07T06:56:14;57.97;;;30.37;;
6089;SDS011;3073;42.660;23.316;2022-12-07T06:58:44;58.77;;;29.30;;
6089;SDS011;3073;42.660;23.316;2022-12-07T07:01:11;66.70;;;31.93;;
6089;SDS011;3073;42.660;23.316;2022-12-07T07:03:39;67.60;;;32.10;;
6089;SDS011;3073;42.660;23.316;2022-12-07T07:06:08;62.00;;;28.60;;
6089;SDS011;3073;42.660;23.316;2022-12-07T07:08:35;65.93;;;29.27;;
6089;SDS011;3073;42.660;23.316;2022-12-07T07:11:04;74.43;;;36.30;;
6089;SDS011;3073;42.660;23.316;2022-12-07T07:13:31;72.30;;;29.43;;
6089;SDS011;3073;42.660;23.316;2022-12-07T07:15:58;65.73;;;33.43;;
6089;SDS011;3073;42.660;23.316;2022-12-07T07:18:26;61.87;;;30.73;;
6089;SDS011;3073;42.660;23.316;2022-12-07T07:20:53;69.00;;;31.87;;
6089;SDS011;3073;42.660;23.316;2022-12-07T07:23:22;61.40;;;30.07;;
6089;SDS011;3073;42.660;23.316;2022-12-07T07:25:49;70.93;;;32.60;;
6089;SDS011;3073;42.660;23.316;2022-12-07T07:28:16;74.10;;;32.87;;
6089;SDS011;3073;42.660;23.316;2022-12-07T07:30:43;55.23;;;24.97;;
6089;SDS011;3073;42.660;23.316;2022-12-07T07:33:10;52.43;;;26.53;;
6089;SDS011;3073;42.660;23.316;2022-12-07T07:35:37;56.17;;;26.10;;
6089;SDS011;3073;42.660;23.316;2022-12-07T07:38:05;50.87;;;24.30;;
6089;SDS011;3073;42.660;23.316;2022-12-07T07:40:33;52.60;;;25.47;;
6089;SDS011;3073;42.660;23.316;2022-12-07T07:43:00;63.13;;;26.13;;
6089;SDS011;3073;42.660;23.316;2022-12-07T07:45:27;66.10;;;27.63;;
6089;SDS011;3073;42.660;23.316;2022-12-07T07:47:54;68.60;;;27.43;;
6089;SDS011;3073;42.660;23.316;2022-12-07T07:50:21;56.00;;;26.60;;
6089;SDS011;3073;42.660;23.316;2022-12-07T07:52:48;49.43;;;24.17;;
6089;SDS011;3073;42.660;23.316;2022-12-07T07:55:15;60.00;;;28.67;;
6089;SDS011;3073;42.660;23.316;2022-12-07T07:57:43;74.37;;;33.80;;
6089;SDS011;3073;42.660;23.316;2022-12-07T08:00:11;63.83;;;32.03;;
6089;SDS011;3073;42.660;23.316;2022-12-07T08:02:40;69.33;;;32.70;;
6089;SDS011;3073;42.660;23.316;2022-12-07T08:05:08;77.13;;;34.63;;
6089;SDS011;3073;42.660;23.316;2022-12-07T08:07:35;69.77;;;35.30;;
6089;SDS011;3073;42.660;23.316;2022-12-07T08:10:02;67.17;;;32.10;;
6089;SDS011;3073;42.660;23.316;2022-12-07T08:12:32;72.47;;;32.40;;
6089;SDS011;3073;42.660;23.316;2022-12-07T08:15:03;61.63;;;31.30;;
6089;SDS011;3073;42.660;23.316;2022-12-07T08:17:31;68.47;;;31.17;;
6089;SDS011;3073;42.660;23.316;2022-12-07T08:19:59;66.73;;;31.27;;
6089;SDS011;3073;42.660;23.316;2022-12-07T08:22:26;59.33;;;30.43;;
6089;SDS011;3073;42.660;23.316;2022-12-07T08:24:53;66.07;;;30.20;;
6089;SDS011;3073;42.660;23.316;2022-12-07T08:27:20;62.83;;;31.17;;
6089;SDS011;3073;42.660;23.316;2022-12-07T08:29:51;68.70;;;29.30;;
6089;SDS011;3073;42.660;23.316;2022-12-07T08:32:21;56.20;;;28.50;;
6089;SDS011;3073;42.660;23.316;2022-12-07T08:34:48;60.53;;;27.80;;
6089;SDS011;3073;42.660;23.316;2022-12-07T08:37:15;55.60;;;28.47;;
6089;SDS011;3073;42.660;23.316;2022-12-07T08:39:42;64.47;;;28.17;;
6089;SDS011;3073;42.660;23.316;2022-12-07T08:42:08;67.20;;;29.63;;
6089;SDS011;3073;42.660;23.316;2022-12-07T08:44:35;62.70;;;29.70;;
6089;SDS011;3073;42.660;23.316;2022-12-07T08:47:02;69.97;;;29.27;;
6089;SDS011;3073;42.660;23.316;2022-12-07T08:49:34;69.27;;;31.00;;
6089;SDS011;3073;42.660;23.316;2022-12-07T08:52:04;66.50;;;32.17;;
6089;SDS011;3073;42.660;23.316;2022-12-07T08:54:31;62.73;;;31.00;;
6089;SDS011;3073;42.660;23.316;2022-12-07T08:57:01;62.10;;;31.33;;
6089;SDS011;3073;42.660;23.316;2022-12-07T08:59:36;58.50;;;28.93;;
6089;SDS011;3073;42.660;23.316;2022-12-07T09:02:03;57.73;;;29.13;;
6089;SDS011;3073;42.660;23.316;2022-12-07T09:04:31;55.70;;;29.30;;
6089;SDS011;3073;42.660;23.316;2022-12-07T09:06:59;62.33;;;29.03;;
6089;SDS011;3073;42.660;23.316;2022-12-07T09:09:26;65.90;;;30.77;;
6089;SDS011;3073;42.660;23.316;2022-12-07T09:11:53;62.53;;;32.40;;
6089;SDS011;3073;42.660;23.316;2022-12-07T09:14:19;70.57;;;35.37;;
6089;SDS011;3073;42.660;23.316;2022-12-07T09:16:47;75.80;;;31.93;;
6089;SDS011;3073;42.660;23.316;2022-12-07T09:19:13;65.67;;;29.63;;
6089;SDS011;3073;42.660;23.316;2022-12-07T09:21:40;78.87;;;31.80;;
6089;SDS011;3073;42.660;23.316;2022-12-07T09:24:09;55.83;;;26.87;;
6089;SDS011;3073;42.660;23.316;2022-12-07T09:26:35;62.63;;;26.90;;
6089;SDS011;3073;42.660;23.316;2022-12-07T09:29:04;57.73;;;27.53;;
6089;SDS011;3073;42.660;23.316;2022-12-07T09:31:31;59.87;;;26.60;;
6089;SDS011;3073;42.660;23.316;2022-12-07T09:33:58;52.20;;;27.70;;
6089;SDS011;3073;42.660;23.316;2022-12-07T09:36:27;56.37;;;27.10;;
6089;SDS011;3073;42.660;23.316;2022-12-07T09:38:54;64.23;;;28.07;;
6089;SDS011;3073;42.660;23.316;2022-12-07T09:41:23;56.73;;;28.17;;
6089;SDS011;3073;42.660;23.316;2022-12-07T09:43:51;68.50;;;29.63;;
6089;SDS011;3073;42.660;23.316;2022-12-07T09:46:19;62.73;;;29.77;;
6089;SDS011;3073;42.660;23.316;2022-12-07T09:48:47;81.13;;;31.53;;
6089;SDS011;3073;42.660;23.316;2022-12-07T09:51:18;53.13;;;28.70;;
6089;SDS011;3073;42.660;23.316;2022-12-07T09:53:46;86.20;;;31.17;;
6089;SDS011;3073;42.660;23.316;2022-12-07T09:56:13;79.73;;;31.73;;
6089;SDS011;3073;42.660;23.316;2022-12-07T09:58:43;71.17;;;31.00;;
6089;SDS011;3073;42.660;23.316;2022-12-07T10:01:12;62.27;;;33.00;;
6089;SDS011;3073;42.660;23.316;2022-12-07T10:03:42;61.47;;;30.83;;
6089;SDS011;3073;42.660;23.316;2022-12-07T10:06:14;77.90;;;32.47;;
6089;SDS011;3073;42.660;23.316;2022-12-07T10:08:41;73.43;;;30.07;;
6089;SDS011;3073;42.660;23.316;2022-12-07T10:11:09;57.70;;;28.40;;
6089;SDS011;3073;42.660;23.316;2022-12-07T10:13:37;70.60;;;29.47;;
6089;SDS011;3073;42.660;23.316;2022-12-07T10:16:09;72.10;;;29.70;;
6089;SDS011;3073;42.660;23.316;2022-12-07T10:19:01;51.20;;;25.50;;
6089;SDS011;3073;42.660;23.316;2022-12-07T10:21:59;51.33;;;23.77;;
6089;SDS011;3073;42.660;23.316;2022-12-07T10:24:31;55.53;;;27.13;;
6089;SDS011;3073;42.660;23.316;2022-12-07T10:26:59;49.67;;;25.10;;
6089;SDS011;3073;42.660;23.316;2022-12-07T10:29:28;53.87;;;25.60;;
6089;SDS011;3073;42.660;23.316;2022-12-07T10:31:59;49.93;;;26.73;;
6089;SDS011;3073;42.660;23.316;2022-12-07T10:34:29;59.63;;;25.07;;
6089;SDS011;3073;42.660;23.316;2022-12-07T10:37:11;49.97;;;25.70;;
6089;SDS011;3073;42.660;23.316;2022-12-07T10:39:42;43.07;;;23.73;;
6089;SDS011;3073;42.660;23.316;2022-12-07T10:42:15;45.40;;;23.33;;
6089;SDS011;3073;42.660;23.316;2022-12-07T10:44:44;45.17;;;24.93;;
6089;SDS011;3073;42.660;23.316;2022-12-07T10:47:20;46.17;;;23.37;;
6089;SDS011;3073;42.660;23.316;2022-12-07T10:52:52;47.00;;;21.53;;
6089;SDS011;3073;42.660;23.316;2022-12-07T10:55:30;44.03;;;21.57;;
6089;SDS011;3073;42.660;23.316;2022-12-07T10:58:13;40.30;;;20.43;;
6089;SDS011;3073;42.660;23.316;2022-12-07T11:00:50;45.57;;;23.50;;
6089;SDS011;3073;42.660;23.316;2022-12-07T11:03:32;49.00;;;24.80;;
6089;SDS011;3073;42.660;23.316;2022-12-07T11:06:14;42.87;;;21.27;;
6089;SDS011;3073;42.660;23.316;2022-12-07T11:08:55;42.07;;;21.27;;
6089;SDS011;3073;42.660;23.316;2022-12-07T11:11:31;66.77;;;22.67;;
6089;SDS011;3073;42.660;23.316;2022-12-07T11:14:03;39.13;;;20.60;;
6089;SDS011;3073;42.660;23.316;2022-12-07T11:16:44;41.63;;;21.23;;
6089;SDS011;3073;42.660;23.316;2022-12-07T11:19:24;52.33;;;24.30;;
6089;SDS011;3073;42.660;23.316;2022-12-07T11:22:03;66.83;;;24.60;;
6089;SDS011;3073;42.660;23.316;2022-12-07T11:24:47;38.47;;;21.30;;
6089;SDS011;3073;42.660;23.316;2022-12-07T11:27:22;61.27;;;23.53;;
6089;SDS011;3073;42.660;23.316;2022-12-07T11:29:59;57.40;;;22.80;;
6089;SDS011;3073;42.660;23.316;2022-12-07T11:32:53;50.50;;;23.30;;
6089;SDS011;3073;42.660;23.316;2022-12-07T11:35:35;47.30;;;24.17;;
6089;SDS011;3073;42.660;23.316;2022-12-07T11:38:09;46.70;;;22.40;;
6089;SDS011;3073;42.660;23.316;2022-12-07T11:40:39;39.37;;;20.67;;
6089;SDS011;3073;42.660;23.316;2022-12-07T11:43:13;49.30;;;21.47;;
6089;SDS011;3073;42.660;23.316;2022-12-07T11:45:47;47.10;;;21.07;;
6089;SDS011;3073;42.660;23.316;2022-12-07T11:48:22;34.73;;;19.90;;
6089;SDS011;3073;42.660;23.316;2022-12-07T11:50:56;46.93;;;19.50;;
6089;SDS011;3073;42.660;23.316;2022-12-07T11:53:25;50.13;;;20.10;;
6089;SDS011;3073;42.660;23.316;2022-12-07T11:55:56;45.20;;;19.13;;
6089;SDS011;3073;42.660;23.316;2022-12-07T11:58:35;45.53;;;19.27;;
6089;SDS011;3073;42.660;23.316;2022-12-07T12:01:16;55.43;;;18.73;;
6089;SDS011;3073;42.660;23.316;2022-12-07T12:03:53;38.53;;;20.03;;
6089;SDS011;3073;42.660;23.316;2022-12-07T12:06:25;41.30;;;19.83;;
6089;SDS011;3073;42.660;23.316;2022-12-07T12:08:53;37.40;;;20.00;;
6089;SDS011;3073;42.660;23.316;2022-12-07T12:11:31;52.67;;;20.40;;
6089;SDS011;3073;42.660;23.316;2022-12-07T12:14:13;41.57;;;20.40;;
6089;SDS011;3073;42.660;23.316;2022-12-07T12:17:08;36.90;;;18.50;;
6089;SDS011;3073;42.660;23.316;2022-12-07T12:20:00;56.30;;;20.27;;
6089;SDS011;3073;42.660;23.316;2022-12-07T12:22:35;46.07;;;22.30;;
6089;SDS011;3073;42.660;23.316;2022-12-07T12:25:06;32.80;;;15.67;;
6089;SDS011;3073;42.660;23.316;2022-12-07T12:27:44;29.27;;;15.50;;
6089;SDS011;3073;42.660;23.316;2022-12-07T12:30:24;29.10;;;15.50;;
6089;SDS011;3073;42.660;23.316;2022-12-07T12:33:01;26.83;;;14.97;;
6089;SDS011;3073;42.660;23.316;2022-12-07T12:35:31;29.30;;;14.63;;
6089;SDS011;3073;42.660;23.316;2022-12-07T12:40:59;31.80;;;15.97;;
6089;SDS011;3073;42.660;23.316;2022-12-07T12:43:41;25.00;;;13.53;;
6089;SDS011;3073;42.660;23.316;2022-12-07T12:46:36;31.60;;;14.90;;
6089;SDS011;3073;42.660;23.316;2022-12-07T12:58:40;24.63;;;14.77;;
6089;SDS011;3073;42.660;23.316;2022-12-07T13:04:23;30.83;;;14.57;;
6089;SDS011;3073;42.660;23.316;2022-12-07T13:06:53;25.47;;;14.40;;
6089;SDS011;3073;42.660;23.316;2022-12-07T13:09:21;26.83;;;13.23;;
6089;SDS011;3073;42.660;23.316;2022-12-07T13:11:55;32.23;;;13.30;;
6089;SDS011;3073;42.660;23.316;2022-12-07T13:14:43;41.83;;;14.13;;
6089;SDS011;3073;42.660;23.316;2022-12-07T13:23:21;26.37;;;13.90;;
6089;SDS011;3073;42.660;23.316;2022-12-07T13:25:53;26.70;;;14.23;;
6089;SDS011;3073;42.660;23.316;2022-12-07T13:28:26;27.53;;;13.10;;
6089;SDS011;3073;42.660;23.316;2022-12-07T13:31:10;21.90;;;12.73;;
6089;SDS011;3073;42.660;23.316;2022-12-07T13:33:42;33.23;;;11.60;;
6089;SDS011;3073;42.660;23.316;2022-12-07T13:36:12;33.67;;;11.20;;
6089;SDS011;3073;42.660;23.316;2022-12-07T13:38:48;24.57;;;12.10;;
6089;SDS011;3073;42.660;23.316;2022-12-07T13:41:18;29.33;;;11.90;;
6089;SDS011;3073;42.660;23.316;2022-12-07T13:43:48;25.57;;;11.90;;
6089;SDS011;3073;42.660;23.316;2022-12-07T13:46:19;32.97;;;13.00;;
6089;SDS011;3073;42.660;23.316;2022-12-07T13:48:51;23.90;;;12.53;;
6089;SDS011;3073;42.660;23.316;2022-12-07T13:51:22;27.33;;;12.40;;
6089;SDS011;3073;42.660;23.316;2022-12-07T13:53:51;38.07;;;13.87;;
6089;SDS011;3073;42.660;23.316;2022-12-07T13:56:20;27.03;;;14.20;;
6089;SDS011;3073;42.660;23.316;2022-12-07T13:58:49;27.23;;;12.83;;
6089;SDS011;3073;42.660;23.316;2022-12-07T14:01:16;30.20;;;14.47;;
6089;SDS011;3073;42.660;23.316;2022-12-07T14:03:44;28.07;;;14.60;;
6089;SDS011;3073;42.660;23.316;2022-12-07T14:06:16;31.13;;;15.63;;
6089;SDS011;3073;42.660;23.316;2022-12-07T14:08:46;31.50;;;13.50;;
6089;SDS011;3073;42.660;23.316;2022-12-07T14:11:14;30.53;;;14.20;;
6089;SDS011;3073;42.660;23.316;2022-12-07T14:13:45;38.80;;;14.50;;
6089;SDS011;3073;42.660;23.316;2022-12-07T14:16:22;26.50;;;15.03;;
6089;SDS011;3073;42.660;23.316;2022-12-07T14:18:54;33.20;;;16.50;;
6089;SDS011;3073;42.660;23.316;2022-12-07T14:21:22;39.43;;;19.90;;
6089;SDS011;3073;42.660;23.316;2022-12-07T14:26:42;28.27;;;14.10;;
6089;SDS011;3073;42.660;23.316;2022-12-07T14:29:28;29.80;;;15.60;;
6089;SDS011;3073;42.660;23.316;2022-12-07T14:31:58;34.07;;;15.03;;
6089;SDS011;3073;42.660;23.316;2022-12-07T14:34:42;35.50;;;17.47;;
6089;SDS011;3073;42.660;23.316;2022-12-07T14:37:19;33.47;;;15.73;;
6089;SDS011;3073;42.660;23.316;2022-12-07T14:39:46;35.90;;;15.60;;
6089;SDS011;3073;42.660;23.316;2022-12-07T14:42:13;35.40;;;15.90;;
6089;SDS011;3073;42.660;23.316;2022-12-07T14:44:40;41.93;;;17.00;;
6089;SDS011;3073;42.660;23.316;2022-12-07T14:47:08;32.80;;;16.33;;
6089;SDS011;3073;42.660;23.316;2022-12-07T14:49:36;42.83;;;16.70;;
6089;SDS011;3073;42.660;23.316;2022-12-07T14:52:04;39.00;;;17.40;;
6089;SDS011;3073;42.660;23.316;2022-12-07T14:54:32;56.30;;;17.97;;
6089;SDS011;3073;42.660;23.316;2022-12-07T14:57:00;34.63;;;16.77;;
6089;SDS011;3073;42.660;23.316;2022-12-07T14:59:27;45.97;;;18.23;;
6089;SDS011;3073;42.660;23.316;2022-12-07T15:01:54;37.90;;;16.20;;
6089;SDS011;3073;42.660;23.316;2022-12-07T15:04:21;73.13;;;19.93;;
6089;SDS011;3073;42.660;23.316;2022-12-07T15:06:54;45.53;;;17.27;;
6089;SDS011;3073;42.660;23.316;2022-12-07T15:09:23;46.40;;;18.50;;
6089;SDS011;3073;42.660;23.316;2022-12-07T15:11:50;43.50;;;18.60;;
6089;SDS011;3073;42.660;23.316;2022-12-07T15:14:17;41.97;;;18.53;;
6089;SDS011;3073;42.660;23.316;2022-12-07T15:16:44;53.17;;;17.50;;
6089;SDS011;3073;42.660;23.316;2022-12-07T15:19:12;41.50;;;17.30;;
6089;SDS011;3073;42.660;23.316;2022-12-07T15:21:41;37.30;;;16.57;;
6089;SDS011;3073;42.660;23.316;2022-12-07T15:24:08;42.03;;;16.97;;